createdAt,value
2023-05-09T00:01:21.095Z,76.84
2023-05-09T00:03:47.941Z,77.02
2023-05-09T00:06:15.574Z,77.34
2023-05-09T00:08:42.329Z,76.84
2023-05-09T00:11:09.063Z,77.63
2023-05-09T00:13:35.890Z,78.43
2023-05-09T00:16:03.644Z,78.15
2023-05-09T00:18:31.375Z,78.73
2023-05-09T00:20:58.106Z,78.60
2023-05-09T00:23:24.798Z,78.46
2023-05-09T00:25:51.520Z,78.57
2023-05-09T00:28:18.157Z,78.05
2023-05-09T00:30:44.914Z,79.25
2023-05-09T00:33:11.913Z,79.55
2023-05-09T00:35:38.720Z,78.79
2023-05-09T00:38:05.359Z,78.60
2023-05-09T00:40:32.015Z,78.99
2023-05-09T00:43:01.365Z,79.39
2023-05-09T00:45:28.011Z,79.38
2023-05-09T00:47:55.539Z,79.98
2023-05-09T00:50:22.275Z,79.81
2023-05-09T00:52:49.062Z,80.39
2023-05-09T00:55:16.528Z,80.64
2023-05-09T00:57:43.594Z,80.38
2023-05-09T01:00:14.135Z,80.77
2023-05-09T01:02:43.218Z,80.83
2023-05-09T01:05:11.118Z,80.82
2023-05-09T01:07:53.555Z,80.16
2023-05-09T01:10:38.159Z,80.31
2023-05-09T01:13:06.572Z,80.65
2023-05-09T01:16:01.507Z,81.15
2023-05-09T01:19:25.946Z,81.44
2023-05-09T01:21:54.718Z,81.05
2023-05-09T01:24:58.500Z,81.42
2023-05-09T01:27:49.720Z,81.14
2023-05-09T01:30:17.361Z,81.55
2023-05-09T01:32:47.749Z,82.26
2023-05-09T01:35:16.358Z,82.50
2023-05-09T01:37:44.880Z,82.73
2023-05-09T01:40:16.730Z,82.62
2023-05-09T01:42:55.073Z,82.30
2023-05-09T01:45:23.793Z,82.18
2023-05-09T01:47:50.892Z,81.88
2023-05-09T01:50:19.694Z,82.37
2023-05-09T01:52:48.941Z,82.71
2023-05-09T01:55:19.962Z,82.31
2023-05-09T01:57:47.332Z,83.40
2023-05-09T02:00:15.184Z,82.94
2023-05-09T02:02:43.351Z,82.50
2023-05-09T02:05:12.046Z,83.18
2023-05-09T02:07:41.844Z,83.72
2023-05-09T02:10:10.287Z,83.59
2023-05-09T02:12:36.979Z,83.88
2023-05-09T02:15:05.150Z,83.35
2023-05-09T02:17:32.318Z,83.64
2023-05-09T02:19:58.964Z,83.88
2023-05-09T02:22:26.132Z,83.97
2023-05-09T02:24:52.918Z,83.81
2023-05-09T02:27:20.677Z,83.57
2023-05-09T02:29:55.924Z,84.48
2023-05-09T02:32:26.598Z,84.61
2023-05-09T02:34:54.626Z,84.06
2023-05-09T02:37:22.253Z,84.05
2023-05-09T02:39:49.008Z,84.24
2023-05-09T02:42:25.118Z,84.52
2023-05-09T02:44:52.955Z,84.29
2023-05-09T02:47:20.464Z,84.13
2023-05-09T02:49:47.971Z,85.51
2023-05-09T02:52:14.624Z,85.52
2023-05-09T02:54:41.286Z,85.19
2023-05-09T02:57:07.899Z,85.03
2023-05-09T02:59:34.647Z,85.74
2023-05-09T03:02:01.684Z,86.18
2023-05-09T03:04:28.324Z,86.10
2023-05-09T03:06:55.204Z,85.58
2023-05-09T03:09:21.784Z,85.94
2023-05-09T03:11:48.427Z,86.07
2023-05-09T03:14:15.507Z,86.83
2023-05-09T03:16:42.150Z,87.06
2023-05-09T03:19:08.846Z,87.17
2023-05-09T03:21:35.538Z,86.07
2023-05-09T03:24:02.189Z,85.62
2023-05-09T03:26:28.862Z,85.35
2023-05-09T03:28:55.620Z,85.80
2023-05-09T03:31:22.330Z,85.64
2023-05-09T03:33:49.031Z,85.61
2023-05-09T03:36:15.740Z,86.27
2023-05-09T03:38:42.500Z,86.66
2023-05-09T03:41:09.743Z,86.73
2023-05-09T03:43:36.446Z,87.43
2023-05-09T03:46:03.022Z,87.60
2023-05-09T03:48:29.684Z,87.66
2023-05-09T03:50:56.460Z,87.87
2023-05-09T03:53:23.411Z,87.62
2023-05-09T03:55:50.011Z,87.60
2023-05-09T03:58:19.298Z,87.51
2023-05-09T04:00:46.232Z,87.40
2023-05-09T04:03:12.976Z,87.78
2023-05-09T04:05:40.932Z,87.70
2023-05-09T04:08:07.976Z,88.49
2023-05-09T04:10:34.623Z,88.13
2023-05-09T04:13:01.353Z,88.81
2023-05-09T04:15:28.100Z,88.94
2023-05-09T04:17:54.902Z,89.15
2023-05-09T04:20:21.610Z,88.83
2023-05-09T04:22:48.288Z,88.41
2023-05-09T04:25:16.084Z,88.57
2023-05-09T04:27:43.044Z,89.25
2023-05-09T04:30:11.210Z,89.83
2023-05-09T04:32:39.003Z,90.18
2023-05-09T04:35:08.225Z,91.51
2023-05-09T04:37:34.986Z,91.74
2023-05-09T04:40:01.580Z,91.41
2023-05-09T04:42:28.212Z,91.08
2023-05-09T04:44:54.891Z,91.49
2023-05-09T04:47:21.566Z,91.99
2023-05-09T04:49:48.215Z,92.88
2023-05-09T04:52:14.875Z,93.46
2023-05-09T04:54:41.494Z,93.76
2023-05-09T04:57:17.408Z,95.40
2023-05-09T04:59:45.819Z,94.50
2023-05-09T05:02:13.076Z,92.58
2023-05-09T05:04:39.979Z,91.83
2023-05-09T05:07:06.582Z,91.31
2023-05-09T05:09:33.354Z,89.82
2023-05-09T05:12:02.656Z,89.42
2023-05-09T05:14:31.021Z,89.53
2023-05-09T05:16:57.626Z,90.19
2023-05-09T05:19:24.271Z,89.33
2023-05-09T05:21:50.877Z,88.08
2023-05-09T05:24:17.494Z,87.39
2023-05-09T05:26:44.176Z,86.48
2023-05-09T05:29:10.900Z,86.69
2023-05-09T05:31:37.720Z,86.50
2023-05-09T05:34:04.343Z,87.08
2023-05-09T05:36:32.184Z,86.50
2023-05-09T05:38:58.846Z,86.03
2023-05-09T05:41:26.328Z,85.18
2023-05-09T05:43:54.349Z,84.19
2023-05-09T05:46:21.473Z,83.70
2023-05-09T05:48:48.193Z,83.93
2023-05-09T05:51:14.908Z,84.43
2023-05-09T05:53:41.656Z,84.35
2023-05-09T05:56:08.323Z,83.97
2023-05-09T05:58:35.071Z,83.41
2023-05-09T06:01:02.430Z,82.77
2023-05-09T06:03:29.168Z,82.44
2023-05-09T06:05:56.568Z,82.62
2023-05-09T06:08:23.507Z,82.04
2023-05-09T06:10:50.112Z,81.72
2023-05-09T06:13:16.827Z,81.60
2023-05-09T06:15:43.597Z,81.27
2023-05-09T06:18:10.470Z,80.33
2023-05-09T06:20:37.211Z,80.11
2023-05-09T06:23:04.105Z,79.16
2023-05-09T06:25:30.881Z,78.56
2023-05-09T06:27:57.497Z,78.67
2023-05-09T06:30:26.630Z,78.63
2023-05-09T06:32:54.602Z,77.49
2023-05-09T06:35:21.586Z,76.07
2023-05-09T06:37:49.162Z,77.04
2023-05-09T06:40:16.763Z,76.57
2023-05-09T06:42:43.584Z,76.40
2023-05-09T06:45:10.741Z,74.80
2023-05-09T06:47:37.470Z,74.24
2023-05-09T06:50:04.351Z,74.76
2023-05-09T06:52:30.954Z,72.42
2023-05-09T06:54:57.546Z,72.15
2023-05-09T06:57:24.241Z,73.84
2023-05-09T06:59:50.928Z,73.44
2023-05-09T07:02:17.564Z,71.64
2023-05-09T07:04:44.279Z,70.81
2023-05-09T07:07:10.965Z,66.17
2023-05-09T07:09:37.697Z,68.82
2023-05-09T07:12:04.673Z,68.88
2023-05-09T07:14:31.352Z,69.01
2023-05-09T07:17:09.858Z,67.13
2023-05-09T07:19:44.683Z,65.90
2023-05-09T07:22:11.319Z,60.51
2023-05-09T07:24:37.965Z,63.09
2023-05-09T07:27:04.673Z,58.95
2023-05-09T07:29:31.544Z,58.44
2023-05-09T07:31:58.232Z,57.71
2023-05-09T07:34:25.632Z,55.52
2023-05-09T07:36:52.346Z,55.12
2023-05-09T07:39:19.073Z,53.24
2023-05-09T07:41:47.878Z,54.12
2023-05-09T07:44:16.011Z,53.42
2023-05-09T07:46:42.923Z,53.38
2023-05-09T07:49:09.798Z,53.00
2023-05-09T07:51:36.746Z,54.32
2023-05-09T07:54:03.751Z,52.06
2023-05-09T07:56:30.841Z,52.58
2023-05-09T07:58:57.480Z,51.47
2023-05-09T08:01:24.123Z,51.24
2023-05-09T08:03:50.927Z,52.32
2023-05-09T08:06:17.776Z,52.80
2023-05-09T08:08:44.381Z,54.11
2023-05-09T08:11:11.055Z,50.04
2023-05-09T08:13:37.737Z,50.18
2023-05-09T08:16:04.727Z,51.72
2023-05-09T08:18:31.424Z,52.01
2023-05-09T08:20:59.727Z,50.09
2023-05-09T08:23:26.825Z,49.38
2023-05-09T08:25:56.794Z,51.00
2023-05-09T08:28:24.500Z,51.05
2023-05-09T08:30:52.171Z,47.91
2023-05-09T08:33:19.242Z,49.92
2023-05-09T08:35:50.345Z,48.83
2023-05-09T08:38:16.981Z,48.57
2023-05-09T08:40:43.819Z,45.92
2023-05-09T08:43:12.262Z,47.33
2023-05-09T08:45:49.724Z,47.32
2023-05-09T08:48:17.299Z,48.20
2023-05-09T08:50:44.917Z,48.79
2023-05-09T08:53:12.690Z,49.49
2023-05-09T08:55:39.901Z,48.59
2023-05-09T08:58:07.558Z,49.25
2023-05-09T09:00:38.294Z,48.23
2023-05-09T09:03:07.755Z,49.09
2023-05-09T09:08:19.234Z,44.38
2023-05-09T09:10:49.759Z,47.23
2023-05-09T09:13:18.055Z,47.88
2023-05-09T09:15:47.234Z,44.96
2023-05-09T09:18:23.333Z,46.80
2023-05-09T09:21:07.290Z,45.10
2023-05-09T09:23:34.630Z,45.70
2023-05-09T09:26:03.113Z,46.38
2023-05-09T09:28:29.868Z,46.18
2023-05-09T09:30:56.698Z,46.50
2023-05-09T09:33:25.571Z,46.82
2023-05-09T09:35:55.026Z,46.58
2023-05-09T09:38:23.079Z,47.15
2023-05-09T09:40:59.182Z,44.38
2023-05-09T09:43:30.469Z,48.25
2023-05-09T09:45:58.426Z,47.90
2023-05-09T09:48:32.250Z,46.56
2023-05-09T09:51:04.926Z,47.74
2023-05-09T09:53:39.631Z,47.33
2023-05-09T09:56:06.610Z,47.47
2023-05-09T09:58:33.274Z,44.65
2023-05-09T10:01:07.379Z,47.45
2023-05-09T10:03:43.568Z,45.68
2023-05-09T10:06:12.047Z,44.79
2023-05-09T10:08:39.529Z,46.61
2023-05-09T10:11:06.364Z,47.13
2023-05-09T10:13:36.379Z,43.55
2023-05-09T10:18:32.094Z,42.50
2023-05-09T10:21:03.954Z,42.22
2023-05-09T10:23:32.849Z,42.45
2023-05-09T10:26:11.472Z,41.59
2023-05-09T10:28:41.196Z,42.52
2023-05-09T10:31:15.886Z,40.54
2023-05-09T10:33:48.225Z,45.91
2023-05-09T10:36:18.185Z,45.08
2023-05-09T10:38:45.266Z,43.55
2023-05-09T10:41:12.346Z,42.81
2023-05-09T10:43:39.594Z,41.20
2023-05-09T10:46:06.948Z,43.44
2023-05-09T10:48:34.039Z,44.61
2023-05-09T10:51:02.488Z,40.40
2023-05-09T10:53:42.204Z,42.31
2023-05-09T10:56:08.991Z,43.44
2023-05-09T10:58:40.938Z,39.28
2023-05-09T11:01:07.989Z,41.13
2023-05-09T11:03:54.873Z,43.60
2023-05-09T11:06:45.235Z,43.85
2023-05-09T11:09:34.528Z,41.08
2023-05-09T11:12:07.405Z,42.60
2023-05-09T11:14:48.695Z,39.86
2023-05-09T11:17:30.653Z,41.04
2023-05-09T11:19:59.807Z,42.48
2023-05-09T11:22:32.706Z,43.98
2023-05-09T11:25:10.590Z,43.16
2023-05-09T11:27:43.658Z,40.92
2023-05-09T11:30:14.289Z,41.34
2023-05-09T11:32:45.307Z,40.89
2023-05-09T11:35:17.719Z,43.15
2023-05-09T11:37:55.147Z,38.97
2023-05-09T11:40:23.033Z,41.16
2023-05-09T11:42:58.092Z,41.33
2023-05-09T11:45:33.121Z,42.50
2023-05-09T11:48:04.218Z,41.06
2023-05-09T11:50:30.920Z,40.86
2023-05-09T11:52:57.592Z,40.83
2023-05-09T11:55:25.795Z,36.66
2023-05-09T11:57:54.224Z,38.21
2023-05-09T12:00:22.857Z,36.47
2023-05-09T12:02:51.166Z,35.23
2023-05-09T12:05:19.651Z,35.22
2023-05-09T12:07:47.654Z,35.64
2023-05-09T12:10:19.597Z,36.92
2023-05-09T12:12:48.623Z,38.97
2023-05-09T12:15:15.754Z,38.75
2023-05-09T12:17:47.243Z,38.57
2023-05-09T12:20:16.006Z,37.15
2023-05-09T12:22:44.160Z,38.62
2023-05-09T12:25:12.235Z,38.00
2023-05-09T12:27:41.293Z,39.90
2023-05-09T12:30:10.615Z,40.19
2023-05-09T12:32:39.597Z,35.78
2023-05-09T12:35:14.380Z,36.49
2023-05-09T12:37:55.306Z,37.67
2023-05-09T12:40:22.020Z,39.40
2023-05-09T12:42:48.640Z,38.42
2023-05-09T12:45:15.766Z,39.26
2023-05-09T12:47:42.718Z,39.71
2023-05-09T12:50:12.433Z,39.03
2023-05-09T12:53:01.462Z,37.60
2023-05-09T12:55:29.250Z,38.54
2023-05-09T12:58:02.011Z,38.75
2023-05-09T13:00:29.391Z,37.46
2023-05-09T13:02:56.238Z,35.93
2023-05-09T13:05:23.663Z,36.51
2023-05-09T13:07:54.731Z,34.73
2023-05-09T13:10:27.580Z,36.98
2023-05-09T13:12:54.689Z,35.88
2023-05-09T13:15:23.350Z,36.33
2023-05-09T13:17:51.661Z,37.76
2023-05-09T13:20:19.496Z,35.88
2023-05-09T13:22:46.744Z,35.39
2023-05-09T13:25:13.613Z,34.74
2023-05-09T13:27:40.230Z,35.46
2023-05-09T13:30:07.906Z,35.62
2023-05-09T13:32:36.694Z,36.61
2023-05-09T13:35:06.772Z,36.42
2023-05-09T13:37:34.440Z,36.63
2023-05-09T13:40:01.100Z,36.72
2023-05-09T13:42:28.188Z,37.14
2023-05-09T13:44:54.824Z,37.88
2023-05-09T13:47:21.796Z,37.99
2023-05-09T13:49:48.544Z,38.08
2023-05-09T13:52:16.346Z,38.12
2023-05-09T13:54:43.177Z,37.51
2023-05-09T13:57:09.983Z,37.00
2023-05-09T13:59:36.971Z,37.16
2023-05-09T14:02:03.896Z,36.98
2023-05-09T14:04:34.212Z,36.69
2023-05-09T14:07:01.677Z,36.92
2023-05-09T14:09:29.562Z,36.26
2023-05-09T14:11:57.109Z,36.94
2023-05-09T14:14:25.590Z,37.76
2023-05-09T14:16:52.807Z,36.61
2023-05-09T14:19:19.815Z,36.41
2023-05-09T14:21:49.559Z,36.29
2023-05-09T14:24:16.580Z,37.04
2023-05-09T14:26:43.821Z,36.78
2023-05-09T14:29:11.092Z,37.58
2023-05-09T14:31:37.987Z,36.86
2023-05-09T14:34:05.396Z,36.74
2023-05-09T14:36:35.275Z,36.33
2023-05-09T14:39:02.395Z,36.46
2023-05-09T14:41:29.024Z,36.88
2023-05-09T14:43:55.728Z,37.27
2023-05-09T14:46:24.828Z,37.46
2023-05-09T14:48:54.443Z,37.75
2023-05-09T14:51:21.228Z,38.47
2023-05-09T14:53:47.864Z,38.39
2023-05-09T14:56:14.708Z,38.14
2023-05-09T14:58:41.321Z,36.68
2023-05-09T15:01:08.013Z,37.45
2023-05-09T15:03:34.733Z,37.42
2023-05-09T15:06:01.561Z,40.30
2023-05-09T15:08:28.393Z,36.03
2023-05-09T15:10:55.046Z,35.99
2023-05-09T15:13:21.965Z,37.28
2023-05-09T15:15:49.428Z,35.66
2023-05-09T15:18:18.365Z,36.45
2023-05-09T15:20:45.022Z,38.16
2023-05-09T15:23:13.273Z,38.11
2023-05-09T15:25:43.395Z,39.33
2023-05-09T15:28:10.050Z,35.04
2023-05-09T15:30:38.886Z,34.83
2023-05-09T15:33:05.800Z,36.47
2023-05-09T15:35:32.479Z,33.33
2023-05-09T15:37:59.636Z,35.10
2023-05-09T15:40:26.537Z,35.82
2023-05-09T15:42:53.206Z,35.16
2023-05-09T15:45:19.783Z,36.79
2023-05-09T15:47:46.524Z,36.80
2023-05-09T15:50:13.368Z,37.48
2023-05-09T15:52:40.349Z,36.95
2023-05-09T15:55:08.680Z,36.80
2023-05-09T15:57:35.455Z,33.63
2023-05-09T16:00:02.226Z,35.54
2023-05-09T16:02:29.085Z,32.94
2023-05-09T16:04:55.878Z,34.55
2023-05-09T16:07:22.788Z,33.62
2023-05-09T16:09:51.100Z,35.52
2023-05-09T16:12:17.786Z,35.01
2023-05-09T16:14:44.420Z,35.36
2023-05-09T16:17:11.515Z,34.79
2023-05-09T16:19:38.329Z,33.67
2023-05-09T16:22:05.009Z,35.05
2023-05-09T16:24:31.944Z,36.54
2023-05-09T16:26:58.865Z,35.43
2023-05-09T16:29:27.381Z,34.43
2023-05-09T16:31:54.144Z,35.71
2023-05-09T16:34:21.052Z,35.94
2023-05-09T16:36:47.985Z,35.49
2023-05-09T16:39:15.284Z,34.71
2023-05-09T16:41:42.089Z,35.29
2023-05-09T16:44:09.005Z,33.74
2023-05-09T16:46:35.893Z,34.46
2023-05-09T16:49:02.586Z,34.99
2023-05-09T16:51:29.268Z,35.27
2023-05-09T16:53:55.932Z,35.54
2023-05-09T16:56:22.722Z,34.80
2023-05-09T16:58:49.453Z,34.58
2023-05-09T17:01:16.190Z,32.98
2023-05-09T17:03:42.926Z,34.53
2023-05-09T17:06:10.396Z,35.15
2023-05-09T17:08:37.057Z,34.51
2023-05-09T17:11:05.386Z,34.96
2023-05-09T17:13:32.013Z,34.96
2023-05-09T17:15:58.728Z,35.57
2023-05-09T17:18:35.977Z,35.71
2023-05-09T17:21:04.453Z,36.30
2023-05-09T17:23:31.826Z,36.81
2023-05-09T17:25:58.584Z,33.56
2023-05-09T17:28:25.387Z,35.71
2023-05-09T17:30:52.245Z,35.27
2023-05-09T17:33:19.365Z,35.76
2023-05-09T17:35:49.429Z,35.32
2023-05-09T17:38:16.135Z,33.40
2023-05-09T17:40:43.450Z,35.15
2023-05-09T17:43:10.629Z,34.03
2023-05-09T17:45:38.112Z,34.08
2023-05-09T17:48:07.031Z,34.69
2023-05-09T17:50:33.754Z,35.21
2023-05-09T17:53:00.631Z,36.07
2023-05-09T17:55:27.330Z,35.79
2023-05-09T17:57:53.956Z,35.46
2023-05-09T18:00:20.690Z,35.45
2023-05-09T18:02:48.236Z,36.09
2023-05-09T18:05:14.952Z,36.20
2023-05-09T18:07:41.672Z,36.47
2023-05-09T18:10:09.331Z,35.06
2023-05-09T18:12:37.297Z,35.08
2023-05-09T18:15:10.702Z,35.12
2023-05-09T18:17:37.879Z,35.40
2023-05-09T18:20:06.576Z,35.82
2023-05-09T18:22:33.423Z,35.56
2023-05-09T18:25:01.080Z,35.89
2023-05-09T18:27:28.175Z,35.79
2023-05-09T18:29:54.743Z,36.65
2023-05-09T18:32:21.933Z,35.43
2023-05-09T18:34:48.615Z,36.48
2023-05-09T18:37:16.948Z,37.27
2023-05-09T18:39:43.840Z,37.70
2023-05-09T18:42:10.953Z,37.87
2023-05-09T18:44:37.627Z,38.45
2023-05-09T18:47:04.431Z,38.50
2023-05-09T18:49:31.241Z,38.18
2023-05-09T18:52:00.080Z,38.18
2023-05-09T18:54:26.873Z,38.76
2023-05-09T18:56:53.746Z,38.02
2023-05-09T18:59:20.473Z,37.85
2023-05-09T19:01:47.192Z,38.89
2023-05-09T19:04:14.980Z,39.37
2023-05-09T19:06:42.475Z,40.00
2023-05-09T19:09:09.158Z,40.17
2023-05-09T19:11:35.973Z,40.47
2023-05-09T19:14:02.732Z,40.38
2023-05-09T19:16:29.644Z,40.49
2023-05-09T19:18:57.229Z,40.77
2023-05-09T19:21:24.455Z,41.19
2023-05-09T19:23:51.404Z,41.19
2023-05-09T19:26:18.972Z,41.35
2023-05-09T19:28:48.570Z,41.52
2023-05-09T19:31:15.859Z,41.83
2023-05-09T19:33:45.659Z,41.96
2023-05-09T19:36:12.845Z,43.26
2023-05-09T19:38:39.630Z,43.49
2023-05-09T19:41:06.321Z,44.06
2023-05-09T19:43:32.979Z,44.48
2023-05-09T19:46:00.245Z,45.26
2023-05-09T19:48:26.985Z,45.47
2023-05-09T19:50:57.788Z,45.81
2023-05-09T19:53:25.058Z,46.37
2023-05-09T19:55:51.970Z,46.14
2023-05-09T19:58:18.775Z,45.84
2023-05-09T20:00:46.040Z,45.97
2023-05-09T20:03:12.944Z,45.79
2023-05-09T20:05:39.691Z,45.60
2023-05-09T20:08:06.446Z,45.20
2023-05-09T20:10:33.215Z,45.19
2023-05-09T20:13:01.018Z,46.36
2023-05-09T20:15:27.967Z,45.99
2023-05-09T20:17:54.810Z,45.59
2023-05-09T20:20:21.661Z,45.50
2023-05-09T20:22:48.293Z,46.33
2023-05-09T20:25:15.414Z,46.75
2023-05-09T20:27:42.160Z,46.66
2023-05-09T20:30:09.307Z,46.59
2023-05-09T20:32:36.002Z,47.00
2023-05-09T20:35:03.006Z,46.85
2023-05-09T20:37:29.771Z,47.68
2023-05-09T20:39:56.620Z,47.62
2023-05-09T20:42:23.667Z,47.35
2023-05-09T20:44:51.575Z,48.46
2023-05-09T20:47:18.490Z,48.52
2023-05-09T20:49:45.149Z,48.76
2023-05-09T20:52:11.934Z,49.75
2023-05-09T20:54:38.674Z,50.26
2023-05-09T20:57:05.272Z,50.08
2023-05-09T20:59:32.039Z,51.15
2023-05-09T21:01:58.796Z,50.97
2023-05-09T21:04:25.707Z,51.09
2023-05-09T21:06:52.407Z,51.47
2023-05-09T21:09:19.082Z,51.18
2023-05-09T21:11:46.165Z,52.80
2023-05-09T21:14:12.856Z,52.69
2023-05-09T21:16:39.831Z,52.75
2023-05-09T21:19:06.922Z,53.17
2023-05-09T21:21:33.710Z,53.49
2023-05-09T21:24:09.026Z,53.25
2023-05-09T21:26:36.476Z,52.66
2023-05-09T21:29:03.122Z,52.15
2023-05-09T21:31:29.856Z,50.55
2023-05-09T21:33:56.564Z,50.83
2023-05-09T21:36:23.199Z,49.80
2023-05-09T21:38:49.943Z,49.83
2023-05-09T21:41:16.981Z,50.35
2023-05-09T21:43:43.675Z,50.33
2023-05-09T21:46:10.606Z,50.98
2023-05-09T21:48:37.354Z,51.02
2023-05-09T21:51:04.602Z,51.27
2023-05-09T21:53:31.412Z,51.96
2023-05-09T21:55:57.998Z,52.37
2023-05-09T21:58:24.711Z,52.41
2023-05-09T22:00:51.452Z,52.10
2023-05-09T22:03:18.151Z,52.61
2023-05-09T22:05:45.281Z,51.55
2023-05-09T22:08:12.337Z,51.98
2023-05-09T22:10:39.128Z,52.09
2023-05-09T22:13:06.018Z,52.92
2023-05-09T22:15:32.916Z,53.11
2023-05-09T22:17:59.595Z,53.08
2023-05-09T22:20:26.415Z,53.19
2023-05-09T22:22:53.112Z,53.32
2023-05-09T22:25:19.788Z,53.12
2023-05-09T22:27:46.626Z,53.73
2023-05-09T22:30:13.621Z,53.81
2023-05-09T22:32:40.715Z,54.30
2023-05-09T22:35:07.890Z,54.13
2023-05-09T22:37:34.548Z,54.22
2023-05-09T22:40:01.578Z,55.94
2023-05-09T22:42:29.446Z,55.50
2023-05-09T22:44:56.172Z,55.95
2023-05-09T22:47:23.078Z,55.18
2023-05-09T22:49:50.531Z,56.17
2023-05-09T22:52:17.303Z,56.12
2023-05-09T22:54:44.295Z,54.87
2023-05-09T22:57:11.744Z,55.26
2023-05-09T22:59:38.631Z,55.61
2023-05-09T23:02:05.957Z,55.45
2023-05-09T23:04:32.699Z,56.20
2023-05-09T23:06:59.289Z,57.07
2023-05-09T23:09:26.346Z,55.80
2023-05-09T23:11:52.984Z,57.39
2023-05-09T23:14:19.846Z,57.54
2023-05-09T23:16:46.685Z,58.42
2023-05-09T23:19:13.374Z,58.08
2023-05-09T23:21:40.045Z,58.46
2023-05-09T23:24:06.906Z,56.98
2023-05-09T23:26:40.175Z,57.19
2023-05-09T23:29:06.918Z,57.92
2023-05-09T23:31:33.610Z,58.90
2023-05-09T23:34:00.295Z,58.66
2023-05-09T23:36:26.996Z,58.84
2023-05-09T23:38:53.708Z,58.24
2023-05-09T23:41:22.010Z,58.48
2023-05-09T23:43:48.664Z,58.24
2023-05-09T23:46:16.068Z,58.30
2023-05-09T23:48:42.771Z,58.94
2023-05-09T23:51:09.498Z,59.02
2023-05-09T23:53:36.152Z,58.76
2023-05-09T23:56:03.009Z,59.65
2023-05-09T23:58:29.735Z,58.87
